Time;durP1;ratioP1;P1;durP2;ratioP2;P2;SDS_P1;SDS_P2;PMS_P1;PMS_P2;Temp;Humidity;BMP_temperature;BMP_pressure;BME280_temperature;BME280_humidity;BME280_pressure;Samples;Min_cycle;Max_cycle;Signal;HPM_P1;HPM_P2
2024/01/26 00:00:08;;;;;;;10.47;2.80;;;;;;;;;;5052699;28;20215;-80
2024/01/26 00:02:38;;;;;;;13.40;3.50;;;;;;;;;;5030761;28;20248;-80
2024/01/26 00:05:06;;;;;;;10.63;3.43;;;;;;;;;;5049830;28;20198;-79
2024/01/26 00:07:34;;;;;;;9.57;3.10;;;;;;;;;;5048538;28;20211;-81
2024/01/26 00:10:02;;;;;;;13.27;3.30;;;;;;;;;;5048785;28;20244;-80
2024/01/26 00:12:31;;;;;;;9.20;2.87;;;;;;;;;;5048699;28;20213;-78
2024/01/26 00:15:00;;;;;;;9.90;2.63;;;;;;;;;;5040461;28;20201;-81
2024/01/26 00:17:27;;;;;;;9.37;3.23;;;;;;;;;;5044932;28;20190;-81
2024/01/26 00:19:54;;;;;;;9.13;3.10;;;;;;;;;;5044596;28;20194;-79
2024/01/26 00:22:23;;;;;;;9.93;3.33;;;;;;;;;;5026961;28;20223;-81
2024/01/26 00:24:53;;;;;;;9.90;3.17;;;;;;;;;;5018401;28;20195;-80
2024/01/26 00:27:20;;;;;;;10.60;3.03;;;;;;;;;;5045858;28;20248;-79
2024/01/26 00:29:49;;;;;;;9.73;3.13;;;;;;;;;;5025025;28;20226;-81
2024/01/26 00:32:32;;;;;;;8.70;3.10;;;;;;;;;;5048724;28;20197;-81
2024/01/26 00:34:58;;;;;;;9.63;3.07;;;;;;;;;;5036571;28;20217;-79
2024/01/26 00:37:25;;;;;;;10.53;2.83;;;;;;;;;;5040607;28;20632;-80
2024/01/26 00:39:52;;;;;;;9.47;2.93;;;;;;;;;;5049555;28;20208;-80
2024/01/26 00:42:21;;;;;;;9.53;2.87;;;;;;;;;;5043670;28;20200;-80
2024/01/26 00:44:56;;;;;;;9.40;2.80;;;;;;;;;;5052320;28;20198;-79
2024/01/26 00:47:25;;;;;;;10.40;2.90;;;;;;;;;;5055382;28;20297;-79
2024/01/26 00:49:52;;;;;;;10.03;3.00;;;;;;;;;;5059690;28;20239;-80
2024/01/26 00:52:22;;;;;;;8.33;2.80;;;;;;;;;;5039780;28;20307;-82
2024/01/26 00:54:50;;;;;;;9.03;3.03;;;;;;;;;;5048076;28;20189;-80
2024/01/26 00:57:16;;;;;;;8.10;2.60;;;;;;;;;;5039489;28;20205;-82
2024/01/26 00:59:51;;;;;;;12.03;3.43;;;;;;;;;;5045126;28;20195;-79
2024/01/26 01:02:23;;;;;;;6.97;2.70;;;;;;;;;;5043622;28;20189;-77
2024/01/26 01:04:50;;;;;;;11.17;2.90;;;;;;;;;;5050458;28;20248;-79
2024/01/26 01:07:18;;;;;;;8.83;3.00;;;;;;;;;;5017556;28;20588;-79
2024/01/26 01:09:44;;;;;;;10.10;2.90;;;;;;;;;;5038593;28;20194;-81
2024/01/26 01:12:13;;;;;;;9.70;3.20;;;;;;;;;;5032962;28;20202;-79
2024/01/26 01:14:47;;;;;;;7.27;2.43;;;;;;;;;;5034265;28;20190;-79
2024/01/26 01:17:14;;;;;;;12.07;3.00;;;;;;;;;;5024336;28;20198;-80
2024/01/26 01:19:41;;;;;;;8.47;2.67;;;;;;;;;;5025716;28;20209;-80
2024/01/26 01:22:12;;;;;;;11.77;2.77;;;;;;;;;;5052352;28;20202;-79
2024/01/26 01:24:42;;;;;;;8.17;2.53;;;;;;;;;;5030545;28;20230;-80
2024/01/26 01:27:11;;;;;;;9.90;2.80;;;;;;;;;;5032504;28;20217;-80
2024/01/26 01:29:40;;;;;;;8.40;2.87;;;;;;;;;;5032334;28;20273;-81
2024/01/26 01:32:07;;;;;;;9.33;3.10;;;;;;;;;;5047259;28;20197;-82
2024/01/26 01:34:37;;;;;;;11.00;2.83;;;;;;;;;;5030781;28;20195;-81
2024/01/26 01:37:03;;;;;;;10.20;2.87;;;;;;;;;;5025291;28;20194;-79
2024/01/26 01:39:30;;;;;;;9.77;3.07;;;;;;;;;;5037434;28;20201;-79
2024/01/26 01:41:59;;;;;;;8.80;2.43;;;;;;;;;;5039440;28;20194;-78
2024/01/26 01:44:27;;;;;;;9.50;2.80;;;;;;;;;;5048014;28;20216;-79
2024/01/26 01:46:55;;;;;;;7.83;2.73;;;;;;;;;;5034607;28;20272;-80
2024/01/26 01:49:24;;;;;;;7.17;2.43;;;;;;;;;;5040641;28;20194;-80
2024/01/26 01:51:52;;;;;;;11.83;3.00;;;;;;;;;;5037891;28;20225;-81
2024/01/26 01:54:20;;;;;;;8.20;2.50;;;;;;;;;;5035518;28;20244;-81
2024/01/26 01:56:47;;;;;;;10.77;2.80;;;;;;;;;;5031209;28;20740;-81
2024/01/26 01:59:16;;;;;;;8.23;2.37;;;;;;;;;;5050923;28;20196;-79
2024/01/26 02:01:45;;;;;;;8.67;2.83;;;;;;;;;;5032799;28;20213;-79
2024/01/26 02:04:14;;;;;;;8.97;2.73;;;;;;;;;;5034376;28;20268;-81
2024/01/26 02:06:41;;;;;;;9.93;2.73;;;;;;;;;;5050424;28;20205;-84
2024/01/26 02:09:10;;;;;;;6.90;2.40;;;;;;;;;;5042668;28;20665;-80
2024/01/26 02:11:39;;;;;;;8.43;2.70;;;;;;;;;;5035385;28;20193;-80
2024/01/26 02:14:09;;;;;;;11.07;2.77;;;;;;;;;;5041071;28;20249;-79
2024/01/26 02:16:35;;;;;;;10.43;3.23;;;;;;;;;;5034259;28;20289;-82
2024/01/26 02:19:02;;;;;;;8.33;2.73;;;;;;;;;;5040968;28;20200;-80
2024/01/26 02:21:32;;;;;;;10.07;2.67;;;;;;;;;;5038382;28;20206;-83
2024/01/26 02:24:01;;;;;;;8.87;3.20;;;;;;;;;;5033292;28;20218;-79
2024/01/26 02:26:29;;;;;;;11.20;3.00;;;;;;;;;;5034034;28;20206;-80
2024/01/26 02:28:59;;;;;;;7.43;2.57;;;;;;;;;;5031699;28;20240;-79
2024/01/26 02:31:25;;;;;;;10.33;3.23;;;;;;;;;;5045088;28;20229;-79
2024/01/26 02:33:52;;;;;;;8.10;2.77;;;;;;;;;;5040224;28;20268;-79
2024/01/26 02:36:22;;;;;;;9.13;2.60;;;;;;;;;;5041801;28;20197;-80
2024/01/26 02:38:54;;;;;;;6.53;2.30;;;;;;;;;;5033726;28;20215;-81
2024/01/26 02:41:26;;;;;;;8.63;3.03;;;;;;;;;;5037938;28;20253;-78
2024/01/26 02:43:54;;;;;;;8.67;2.83;;;;;;;;;;5037745;28;20233;-81
2024/01/26 02:46:20;;;;;;;8.97;3.00;;;;;;;;;;5025295;28;20201;-80
2024/01/26 02:48:54;;;;;;;6.63;2.50;;;;;;;;;;5042625;28;20783;-80
2024/01/26 02:51:22;;;;;;;7.23;2.33;;;;;;;;;;5043355;28;20241;-80
2024/01/26 02:53:51;;;;;;;5.63;2.40;;;;;;;;;;5037590;28;20197;-78
2024/01/26 02:56:18;;;;;;;9.57;2.53;;;;;;;;;;5029322;28;20189;-81
2024/01/26 02:58:44;;;;;;;9.17;2.67;;;;;;;;;;5049094;28;20609;-80
2024/01/26 03:01:11;;;;;;;7.27;2.50;;;;;;;;;;5041377;28;20255;-81
2024/01/26 03:03:38;;;;;;;9.07;3.13;;;;;;;;;;5033287;28;20694;-80
2024/01/26 03:06:06;;;;;;;9.43;2.50;;;;;;;;;;5047115;28;20204;-79
2024/01/26 03:08:35;;;;;;;8.60;2.77;;;;;;;;;;5043651;28;20615;-79
2024/01/26 03:11:03;;;;;;;8.10;2.50;;;;;;;;;;5010831;28;20205;-80
2024/01/26 03:13:32;;;;;;;8.67;2.53;;;;;;;;;;5040854;28;20194;-79
2024/01/26 03:16:02;;;;;;;7.90;2.50;;;;;;;;;;5044806;28;20263;-80
2024/01/26 03:18:29;;;;;;;10.03;2.90;;;;;;;;;;5048072;28;20217;-79
2024/01/26 03:20:56;;;;;;;9.17;2.60;;;;;;;;;;5043630;28;20213;-82
2024/01/26 03:23:23;;;;;;;6.67;1.97;;;;;;;;;;5037664;28;20214;-79
2024/01/26 03:25:49;;;;;;;9.17;2.37;;;;;;;;;;5048746;28;20197;-80
2024/01/26 03:28:16;;;;;;;8.67;2.60;;;;;;;;;;5050444;28;20204;-79
2024/01/26 03:30:46;;;;;;;9.40;2.50;;;;;;;;;;5036941;28;20229;-79
2024/01/26 03:33:19;;;;;;;11.37;3.20;;;;;;;;;;5041703;28;20198;-81
2024/01/26 03:35:46;;;;;;;8.90;2.47;;;;;;;;;;5047486;28;20201;-78
2024/01/26 03:38:13;;;;;;;8.73;2.50;;;;;;;;;;5047848;28;20243;-78
2024/01/26 03:40:43;;;;;;;8.00;2.80;;;;;;;;;;5030777;28;20220;-79
2024/01/26 03:43:10;;;;;;;6.77;2.50;;;;;;;;;;5038668;28;20201;-81
2024/01/26 03:45:38;;;;;;;8.07;2.23;;;;;;;;;;5049252;28;20216;-79
2024/01/26 03:48:06;;;;;;;9.10;2.50;;;;;;;;;;5011990;28;20562;-79
2024/01/26 03:50:33;;;;;;;8.67;2.87;;;;;;;;;;5024944;28;20197;-81
2024/01/26 03:53:10;;;;;;;8.63;2.40;;;;;;;;;;5037230;28;20229;-81
2024/01/26 03:55:40;;;;;;;8.13;2.73;;;;;;;;;;5045540;28;20686;-80
2024/01/26 03:58:12;;;;;;;11.43;2.80;;;;;;;;;;5030768;28;20211;-81
2024/01/26 04:00:39;;;;;;;10.23;2.50;;;;;;;;;;5050093;28;20193;-79
2024/01/26 04:03:06;;;;;;;6.27;2.63;;;;;;;;;;5052845;28;20204;-80
2024/01/26 04:05:33;;;;;;;7.30;2.70;;;;;;;;;;5049298;28;20418;-81
2024/01/26 04:08:00;;;;;;;10.03;2.77;;;;;;;;;;5044474;28;20273;-79
2024/01/26 04:10:29;;;;;;;10.47;2.73;;;;;;;;;;5045844;28;20191;-80
2024/01/26 04:12:58;;;;;;;7.87;2.50;;;;;;;;;;5048747;28;20217;-81
2024/01/26 04:15:28;;;;;;;8.13;2.60;;;;;;;;;;5035983;28;20312;-80
2024/01/26 04:17:56;;;;;;;9.30;2.30;;;;;;;;;;5049707;28;20197;-82
2024/01/26 04:20:24;;;;;;;9.60;3.10;;;;;;;;;;5045642;28;20256;-79
2024/01/26 04:22:53;;;;;;;7.80;2.40;;;;;;;;;;5046331;28;20276;-79
2024/01/26 04:25:23;;;;;;;8.27;2.47;;;;;;;;;;5041424;28;20237;-81
2024/01/26 04:27:49;;;;;;;9.87;3.00;;;;;;;;;;5045435;28;20194;-79
2024/01/26 04:30:18;;;;;;;11.37;2.77;;;;;;;;;;5042179;28;20187;-79
2024/01/26 04:32:45;;;;;;;9.13;3.00;;;;;;;;;;5029182;28;20230;-80
2024/01/26 04:35:13;;;;;;;8.87;2.83;;;;;;;;;;5045209;28;20205;-80
2024/01/26 04:37:44;;;;;;;10.23;3.87;;;;;;;;;;5049144;28;20197;-81
2024/01/26 04:40:18;;;;;;;7.43;2.23;;;;;;;;;;5038355;28;20240;-81
2024/01/26 04:42:48;;;;;;;9.77;2.50;;;;;;;;;;5045683;28;20624;-80
2024/01/26 04:45:16;;;;;;;7.27;2.73;;;;;;;;;;5031678;28;20235;-79
2024/01/26 04:47:44;;;;;;;9.60;2.73;;;;;;;;;;5032964;28;20206;-81
2024/01/26 04:50:13;;;;;;;7.47;2.20;;;;;;;;;;5031726;28;20673;-79
2024/01/26 04:52:40;;;;;;;9.10;2.70;;;;;;;;;;5043067;28;20336;-79
2024/01/26 04:55:16;;;;;;;8.97;3.00;;;;;;;;;;5032588;28;20565;-79
2024/01/26 04:57:42;;;;;;;12.00;3.40;;;;;;;;;;5037995;28;20705;-79
2024/01/26 05:00:13;;;;;;;8.97;2.50;;;;;;;;;;5029608;28;20182;-78
2024/01/26 05:02:40;;;;;;;7.33;2.60;;;;;;;;;;5034029;28;20199;-79
2024/01/26 05:05:07;;;;;;;9.60;2.87;;;;;;;;;;5035724;28;20277;-79
2024/01/26 05:07:34;;;;;;;9.93;3.67;;;;;;;;;;5029786;28;20243;-79
2024/01/26 05:10:04;;;;;;;8.27;2.27;;;;;;;;;;5031873;28;20209;-79
2024/01/26 05:12:34;;;;;;;7.23;2.57;;;;;;;;;;5028799;28;20191;-78
2024/01/26 05:15:02;;;;;;;9.87;2.87;;;;;;;;;;5029560;28;20278;-79
2024/01/26 05:17:41;;;;;;;10.90;2.97;;;;;;;;;;5035399;28;20213;-79
2024/01/26 05:20:11;;;;;;;9.17;2.70;;;;;;;;;;5007772;28;20211;-79
2024/01/26 05:22:45;;;;;;;11.20;2.87;;;;;;;;;;5029283;28;20221;-78
2024/01/26 05:25:15;;;;;;;11.00;2.80;;;;;;;;;;5027516;28;20434;-78
2024/01/26 05:27:42;;;;;;;8.03;2.60;;;;;;;;;;5034716;28;20268;-81
2024/01/26 05:30:08;;;;;;;8.07;2.30;;;;;;;;;;5030437;28;20209;-78
2024/01/26 05:32:35;;;;;;;9.43;2.50;;;;;;;;;;5030948;28;20194;-78
2024/01/26 05:35:05;;;;;;;6.17;2.50;;;;;;;;;;5032281;28;20277;-78
2024/01/26 05:37:32;;;;;;;9.10;2.57;;;;;;;;;;5036549;28;20202;-79
2024/01/26 05:39:58;;;;;;;6.07;2.50;;;;;;;;;;5010734;28;20199;-77
2024/01/26 05:42:27;;;;;;;7.83;2.97;;;;;;;;;;5007389;28;20238;-79
2024/01/26 05:44:55;;;;;;;8.30;2.73;;;;;;;;;;5044883;28;20271;-81
2024/01/26 05:47:28;;;;;;;7.53;2.43;;;;;;;;;;5012058;28;20401;-79
2024/01/26 05:49:55;;;;;;;9.57;3.10;;;;;;;;;;5039046;28;20198;-79
2024/01/26 05:52:24;;;;;;;9.23;2.80;;;;;;;;;;5024496;28;20245;-80
2024/01/26 05:54:50;;;;;;;9.73;3.10;;;;;;;;;;5019653;28;20195;-80
2024/01/26 05:57:19;;;;;;;9.50;3.00;;;;;;;;;;5028126;28;20198;-80
2024/01/26 05:59:46;;;;;;;8.37;3.20;;;;;;;;;;5026751;28;20220;-78
2024/01/26 06:02:18;;;;;;;7.77;2.70;;;;;;;;;;5027637;28;20202;-78
2024/01/26 06:04:50;;;;;;;10.07;2.87;;;;;;;;;;5039703;28;20587;-78
2024/01/26 06:07:17;;;;;;;8.10;2.60;;;;;;;;;;5034277;28;20258;-78
2024/01/26 06:09:44;;;;;;;10.73;2.93;;;;;;;;;;5036471;28;20212;-79
2024/01/26 06:12:10;;;;;;;10.17;3.23;;;;;;;;;;5044033;28;20276;-78
2024/01/26 06:14:40;;;;;;;10.97;3.73;;;;;;;;;;5045941;28;20189;-78
2024/01/26 06:17:07;;;;;;;11.33;3.50;;;;;;;;;;5042135;28;20198;-80
2024/01/26 06:19:38;;;;;;;8.80;2.77;;;;;;;;;;5037884;28;20187;-78
2024/01/26 06:22:08;;;;;;;11.73;3.40;;;;;;;;;;5032386;28;20252;-78
2024/01/26 06:24:35;;;;;;;8.93;2.90;;;;;;;;;;5029394;28;20214;-81
2024/01/26 06:27:03;;;;;;;9.57;2.83;;;;;;;;;;5035793;28;20252;-78
2024/01/26 06:29:30;;;;;;;8.00;2.77;;;;;;;;;;5030280;28;20429;-79
2024/01/26 06:32:03;;;;;;;8.63;2.87;;;;;;;;;;5012335;28;20198;-80
2024/01/26 06:34:30;;;;;;;6.67;2.60;;;;;;;;;;5028531;28;20221;-78
2024/01/26 06:36:57;;;;;;;11.83;3.10;;;;;;;;;;5034141;28;20193;-80
2024/01/26 06:39:27;;;;;;;9.50;2.70;;;;;;;;;;5034141;28;20198;-81
2024/01/26 06:41:56;;;;;;;11.47;3.10;;;;;;;;;;5030122;28;20214;-78
2024/01/26 06:44:24;;;;;;;10.50;2.90;;;;;;;;;;5037676;28;20226;-78
2024/01/26 06:46:50;;;;;;;8.37;2.93;;;;;;;;;;5030248;28;20198;-80
2024/01/26 06:49:19;;;;;;;9.87;2.90;;;;;;;;;;5029242;28;20217;-79
2024/01/26 06:51:46;;;;;;;10.47;3.43;;;;;;;;;;5045326;28;20285;-80
2024/01/26 06:54:12;;;;;;;9.17;3.20;;;;;;;;;;5060328;28;20262;-79
2024/01/26 06:56:40;;;;;;;9.03;3.13;;;;;;;;;;5053421;28;20220;-78
2024/01/26 06:59:08;;;;;;;12.83;3.37;;;;;;;;;;5060651;28;20264;-81
2024/01/26 07:01:35;;;;;;;10.57;3.83;;;;;;;;;;5048726;28;20412;-78
2024/01/26 07:04:05;;;;;;;9.37;4.17;;;;;;;;;;5049910;28;20264;-80
2024/01/26 07:06:38;;;;;;;9.10;3.67;;;;;;;;;;5049865;28;20240;-80
2024/01/26 07:09:08;;;;;;;12.77;3.70;;;;;;;;;;5049970;28;20213;-79
2024/01/26 07:11:37;;;;;;;12.30;3.93;;;;;;;;;;5051001;28;20189;-79
2024/01/26 07:14:04;;;;;;;11.50;3.80;;;;;;;;;;5054394;28;20189;-78
2024/01/26 07:16:31;;;;;;;11.20;3.50;;;;;;;;;;5052454;28;20283;-78
2024/01/26 07:19:02;;;;;;;10.77;4.03;;;;;;;;;;5051474;28;20272;-78
2024/01/26 07:21:38;;;;;;;11.70;3.73;;;;;;;;;;5056739;28;20255;-78
2024/01/26 07:24:05;;;;;;;17.43;4.57;;;;;;;;;;5047688;28;20193;-78
2024/01/26 07:26:32;;;;;;;12.43;4.40;;;;;;;;;;5059451;28;20186;-78
2024/01/26 07:28:58;;;;;;;14.20;5.73;;;;;;;;;;5065411;28;20193;-79
2024/01/26 07:31:25;;;;;;;13.73;4.83;;;;;;;;;;5053714;28;20193;-81
2024/01/26 07:33:54;;;;;;;16.10;10.70;;;;;;;;;;5052708;28;20198;-80
2024/01/26 07:36:21;;;;;;;12.40;3.90;;;;;;;;;;5069243;28;20188;-81
2024/01/26 07:38:52;;;;;;;9.07;2.83;;;;;;;;;;5059252;28;20229;-80
2024/01/26 07:41:20;;;;;;;10.10;3.23;;;;;;;;;;5052877;28;20267;-82
2024/01/26 07:43:47;;;;;;;12.03;3.80;;;;;;;;;;5059257;28;20733;-79
2024/01/26 07:46:15;;;;;;;14.80;3.70;;;;;;;;;;5046448;28;20941;-79
2024/01/26 07:48:49;;;;;;;10.00;3.33;;;;;;;;;;5054602;28;20189;-80
2024/01/26 07:51:18;;;;;;;10.67;3.50;;;;;;;;;;5055496;28;20280;-78
2024/01/26 07:53:49;;;;;;;10.93;3.60;;;;;;;;;;5045738;28;20267;-78
2024/01/26 07:56:16;;;;;;;10.47;3.47;;;;;;;;;;5051896;28;20197;-78
2024/01/26 07:58:44;;;;;;;7.43;3.20;;;;;;;;;;5043285;28;20590;-79
2024/01/26 08:01:11;;;;;;;11.20;3.30;;;;;;;;;;5018083;28;20302;-82
2024/01/26 08:03:43;;;;;;;9.17;3.33;;;;;;;;;;5051761;28;20197;-79
2024/01/26 08:06:11;;;;;;;10.37;3.30;;;;;;;;;;5067246;28;20217;-79
2024/01/26 08:08:38;;;;;;;13.30;3.80;;;;;;;;;;5065054;28;20280;-79
2024/01/26 08:11:06;;;;;;;11.50;3.40;;;;;;;;;;5073136;28;20185;-79
2024/01/26 08:13:33;;;;;;;11.20;3.67;;;;;;;;;;5061793;28;20197;-80
2024/01/26 08:15:59;;;;;;;11.73;4.30;;;;;;;;;;5065230;28;20192;-79
2024/01/26 08:18:29;;;;;;;11.53;4.57;;;;;;;;;;5053954;28;20580;-79
2024/01/26 08:21:00;;;;;;;7.20;4.10;;;;;;;;;;5068161;28;20255;-78
2024/01/26 08:23:27;;;;;;;9.97;4.53;;;;;;;;;;5069021;28;20188;-81
2024/01/26 08:25:54;;;;;;;11.93;4.37;;;;;;;;;;5068495;28;20224;-81
2024/01/26 08:28:24;;;;;;;13.13;4.63;;;;;;;;;;5061121;28;20189;-79
2024/01/26 08:30:55;;;;;;;11.40;4.70;;;;;;;;;;5056445;28;20193;-78
2024/01/26 08:33:22;;;;;;;12.00;4.20;;;;;;;;;;5072761;28;20744;-80
2024/01/26 08:35:55;;;;;;;12.33;4.47;;;;;;;;;;5055012;28;20244;-79
2024/01/26 08:38:25;;;;;;;10.20;4.07;;;;;;;;;;5056002;28;20201;-81
2024/01/26 08:40:51;;;;;;;12.50;4.23;;;;;;;;;;5063521;28;20200;-81
2024/01/26 08:43:25;;;;;;;11.93;4.07;;;;;;;;;;5052276;28;20676;-81
2024/01/26 08:45:52;;;;;;;10.93;3.90;;;;;;;;;;5052083;28;20219;-80
2024/01/26 08:48:21;;;;;;;11.77;3.90;;;;;;;;;;5056595;28;20194;-79
2024/01/26 08:51:06;;;;;;;11.80;4.33;;;;;;;;;;5052175;28;20197;-79
2024/01/26 08:53:33;;;;;;;13.27;4.13;;;;;;;;;;5056297;28;20233;-82
2024/01/26 08:56:03;;;;;;;11.47;3.77;;;;;;;;;;5061798;28;20280;-79
2024/01/26 08:58:39;;;;;;;8.47;3.50;;;;;;;;;;5054774;28;20269;-79
2024/01/26 09:01:09;;;;;;;9.87;3.37;;;;;;;;;;5055437;28;20197;-79
2024/01/26 09:03:36;;;;;;;8.87;3.60;;;;;;;;;;5046075;28;20193;-80
2024/01/26 09:06:03;;;;;;;12.10;4.00;;;;;;;;;;5051929;28;20218;-79
2024/01/26 09:08:29;;;;;;;13.17;4.50;;;;;;;;;;5054545;28;20658;-79
2024/01/26 09:11:10;;;;;;;9.57;3.70;;;;;;;;;;5054815;28;20284;-80
2024/01/26 09:13:41;;;;;;;10.37;3.77;;;;;;;;;;5052025;28;20188;-81
2024/01/26 09:16:11;;;;;;;11.10;3.70;;;;;;;;;;5063837;28;20186;-80
2024/01/26 09:18:40;;;;;;;11.23;3.80;;;;;;;;;;5055436;28;20197;-82
2024/01/26 09:21:15;;;;;;;8.63;3.57;;;;;;;;;;5051879;28;20233;-80
2024/01/26 09:23:45;;;;;;;13.53;4.60;;;;;;;;;;5051385;28;20205;-79
2024/01/26 09:26:12;;;;;;;14.03;5.23;;;;;;;;;;5051432;28;20278;-80
2024/01/26 09:28:38;;;;;;;13.73;4.10;;;;;;;;;;5051206;28;20216;-78
2024/01/26 09:31:08;;;;;;;8.40;4.17;;;;;;;;;;5055139;28;20255;-79
2024/01/26 09:33:34;;;;;;;13.63;3.80;;;;;;;;;;5058324;28;20204;-79
2024/01/26 09:36:05;;;;;;;10.90;3.67;;;;;;;;;;5038383;28;20712;-80
2024/01/26 09:38:34;;;;;;;12.30;3.97;;;;;;;;;;5055781;28;20201;-80
2024/01/26 09:41:01;;;;;;;10.47;3.73;;;;;;;;;;5052607;28;20209;-79
2024/01/26 09:43:35;;;;;;;9.47;4.40;;;;;;;;;;5051749;28;20197;-79
2024/01/26 09:46:06;;;;;;;9.93;4.33;;;;;;;;;;5048483;28;20264;-79
2024/01/26 09:48:35;;;;;;;14.60;5.40;;;;;;;;;;5048180;28;20212;-79
2024/01/26 09:51:04;;;;;;;11.83;4.80;;;;;;;;;;5050006;28;20205;-78
2024/01/26 09:53:34;;;;;;;14.43;4.80;;;;;;;;;;5049455;28;20234;-79
2024/01/26 09:56:05;;;;;;;15.23;4.93;;;;;;;;;;5051313;28;20428;-79
2024/01/26 09:58:32;;;;;;;14.67;4.80;;;;;;;;;;5049949;28;20189;-79
2024/01/26 10:00:59;;;;;;;13.37;5.13;;;;;;;;;;5050955;28;20212;-79
2024/01/26 10:03:30;;;;;;;16.03;5.13;;;;;;;;;;5033730;28;20201;-80
2024/01/26 10:06:01;;;;;;;11.17;5.33;;;;;;;;;;5051041;28;20220;-80
2024/01/26 10:08:36;;;;;;;11.63;5.33;;;;;;;;;;5058804;28;20199;-78
2024/01/26 10:11:03;;;;;;;12.87;5.00;;;;;;;;;;5051293;28;20185;-81
2024/01/26 10:13:42;;;;;;;13.27;5.13;;;;;;;;;;5050577;28;20213;-79
2024/01/26 10:16:10;;;;;;;12.73;4.90;;;;;;;;;;5052205;28;20197;-78
2024/01/26 10:18:42;;;;;;;12.83;4.67;;;;;;;;;;5047727;28;20201;-79
2024/01/26 10:21:29;;;;;;;14.07;4.00;;;;;;;;;;5050513;28;20776;-80
2024/01/26 10:23:58;;;;;;;9.63;4.43;;;;;;;;;;5050989;28;20201;-80
2024/01/26 10:26:27;;;;;;;12.77;4.57;;;;;;;;;;5051469;28;20213;-82
2024/01/26 10:28:59;;;;;;;10.00;4.50;;;;;;;;;;5053276;28;20199;-79
2024/01/26 10:31:28;;;;;;;13.17;4.77;;;;;;;;;;5064845;28;20201;-80
2024/01/26 10:33:55;;;;;;;12.67;4.57;;;;;;;;;;5058347;28;20193;-78
2024/01/26 10:36:23;;;;;;;13.70;4.43;;;;;;;;;;5051517;28;20193;-80
2024/01/26 10:38:49;;;;;;;11.50;4.70;;;;;;;;;;5055783;28;20200;-80
2024/01/26 10:41:21;;;;;;;12.83;4.87;;;;;;;;;;5061570;28;20241;-81
2024/01/26 10:43:58;;;;;;;13.33;5.20;;;;;;;;;;5063583;28;20288;-79
2024/01/26 10:46:28;;;;;;;12.80;5.10;;;;;;;;;;5059540;28;20217;-80
2024/01/26 10:48:55;;;;;;;10.43;5.13;;;;;;;;;;5055759;28;20221;-82
2024/01/26 10:51:50;;;;;;;13.53;5.70;;;;;;;;;;5053426;28;20228;-79
2024/01/26 10:54:17;;;;;;;12.00;6.00;;;;;;;;;;5051172;28;20189;-79
2024/01/26 10:56:46;;;;;;;14.27;5.80;;;;;;;;;;5054732;28;20201;-80
2024/01/26 10:59:16;;;;;;;12.57;5.53;;;;;;;;;;5050245;28;20207;-81
2024/01/26 11:01:43;;;;;;;10.80;4.80;;;;;;;;;;5049499;28;20242;-79
2024/01/26 11:04:17;;;;;;;11.97;5.20;;;;;;;;;;5042246;28;20205;-78
2024/01/26 11:06:44;;;;;;;11.13;5.60;;;;;;;;;;5053955;28;20632;-80
2024/01/26 11:09:14;;;;;;;13.40;5.80;;;;;;;;;;5049751;28;20196;-81
2024/01/26 11:11:49;;;;;;;14.77;6.50;;;;;;;;;;5055351;28;20200;-79
2024/01/26 11:14:16;;;;;;;13.63;6.27;;;;;;;;;;5046619;28;20604;-80
2024/01/26 11:16:47;;;;;;;24.33;13.03;;;;;;;;;;5058102;28;20193;-81
2024/01/26 11:19:21;;;;;;;14.93;7.40;;;;;;;;;;5058005;28;20201;-79
2024/01/26 11:21:50;;;;;;;13.73;6.03;;;;;;;;;;5053687;28;20264;-79
2024/01/26 11:24:20;;;;;;;15.77;6.60;;;;;;;;;;5053492;28;20189;-80
2024/01/26 11:26:58;;;;;;;12.97;6.70;;;;;;;;;;5054442;28;20222;-77
2024/01/26 11:29:34;;;;;;;15.63;6.97;;;;;;;;;;5039662;28;20257;-79
2024/01/26 11:32:16;;;;;;;12.60;6.90;;;;;;;;;;5058689;28;20271;-79
2024/01/26 11:35:07;;;;;;;13.13;6.83;;;;;;;;;;5068837;28;20189;-81
2024/01/26 11:37:36;;;;;;;15.63;8.10;;;;;;;;;;5060991;28;20317;-79
2024/01/26 11:40:04;;;;;;;13.97;7.60;;;;;;;;;;5053342;28;20607;-79
2024/01/26 11:42:40;;;;;;;15.27;7.77;;;;;;;;;;5068674;28;20193;-78
2024/01/26 11:45:12;;;;;;;16.43;10.87;;;;;;;;;;5053527;28;20220;-79
2024/01/26 11:47:42;;;;;;;12.93;8.20;;;;;;;;;;5060172;28;20197;-79
2024/01/26 11:50:10;;;;;;;12.53;7.53;;;;;;;;;;5053236;28;20193;-80
2024/01/26 11:52:37;;;;;;;13.27;7.57;;;;;;;;;;5054019;28;20237;-82
2024/01/26 11:55:12;;;;;;;15.70;8.23;;;;;;;;;;5058685;28;20212;-79
2024/01/26 11:57:38;;;;;;;11.93;7.47;;;;;;;;;;5058397;28;20189;-79
2024/01/26 12:00:12;;;;;;;14.67;9.73;;;;;;;;;;5049153;28;20263;-79
2024/01/26 12:02:49;;;;;;;16.50;12.37;;;;;;;;;;5053057;28;20203;-79
2024/01/26 12:05:17;;;;;;;14.03;8.93;;;;;;;;;;5057026;28;20239;-80
2024/01/26 12:07:44;;;;;;;10.37;6.60;;;;;;;;;;5052600;28;20217;-80
2024/01/26 12:10:19;;;;;;;13.20;7.43;;;;;;;;;;5059960;28;20312;-79
2024/01/26 12:12:49;;;;;;;12.87;7.00;;;;;;;;;;5060990;28;20217;-79
2024/01/26 12:15:31;;;;;;;12.10;7.00;;;;;;;;;;5059118;28;20247;-80
2024/01/26 12:18:00;;;;;;;11.30;7.10;;;;;;;;;;5021344;28;20209;-80
2024/01/26 12:20:27;;;;;;;14.80;7.57;;;;;;;;;;5060405;28;20280;-79
2024/01/26 12:22:55;;;;;;;13.10;7.00;;;;;;;;;;5057982;28;20255;-81
2024/01/26 12:25:27;;;;;;;16.57;7.20;;;;;;;;;;5051184;28;20877;-79
2024/01/26 12:27:55;;;;;;;12.03;7.60;;;;;;;;;;5035777;28;20193;-79
2024/01/26 12:30:22;;;;;;;14.77;7.17;;;;;;;;;;5044540;28;20355;-79
2024/01/26 12:32:49;;;;;;;13.97;7.53;;;;;;;;;;5035907;28;20210;-78
2024/01/26 12:35:22;;;;;;;12.93;7.37;;;;;;;;;;5052051;28;20209;-79
2024/01/26 12:37:51;;;;;;;12.80;6.40;;;;;;;;;;5052451;28;20189;-79
2024/01/26 12:40:22;;;;;;;11.83;6.10;;;;;;;;;;5051305;28;20197;-81
2024/01/26 12:42:48;;;;;;;13.93;6.30;;;;;;;;;;5052298;28;20272;-82
2024/01/26 12:45:26;;;;;;;11.07;5.60;;;;;;;;;;5041384;28;20201;-80
2024/01/26 12:47:56;;;;;;;13.03;5.87;;;;;;;;;;5060663;28;20216;-79
2024/01/26 12:50:26;;;;;;;13.20;5.83;;;;;;;;;;5060447;28;20272;-80
2024/01/26 12:52:55;;;;;;;11.73;5.87;;;;;;;;;;5053388;28;20248;-80
2024/01/26 12:55:23;;;;;;;8.67;5.00;;;;;;;;;;5072104;28;20212;-79
2024/01/26 12:57:52;;;;;;;11.23;5.80;;;;;;;;;;5070312;28;20189;-79
2024/01/26 13:00:21;;;;;;;9.07;5.47;;;;;;;;;;5052302;28;20276;-79
2024/01/26 13:02:48;;;;;;;10.73;5.40;;;;;;;;;;5053134;28;20252;-80
2024/01/26 13:05:18;;;;;;;9.43;4.87;;;;;;;;;;5057467;28;20196;-79
2024/01/26 13:07:46;;;;;;;10.23;5.63;;;;;;;;;;5052037;28;20247;-80
2024/01/26 13:10:13;;;;;;;9.60;5.50;;;;;;;;;;5063255;28;20275;-79
2024/01/26 13:12:40;;;;;;;13.73;7.43;;;;;;;;;;5054891;28;20193;-80
2024/01/26 13:15:09;;;;;;;12.17;5.87;;;;;;;;;;5052148;28;20197;-79
2024/01/26 13:17:37;;;;;;;13.17;5.43;;;;;;;;;;5046825;28;20193;-82
2024/01/26 13:20:09;;;;;;;10.80;5.87;;;;;;;;;;5052727;28;20743;-82
2024/01/26 13:22:48;;;;;;;12.87;5.93;;;;;;;;;;5055635;28;20200;-80
2024/01/26 13:25:17;;;;;;;14.80;6.80;;;;;;;;;;5051508;28;20244;-79
2024/01/26 13:27:44;;;;;;;14.33;7.47;;;;;;;;;;5056542;28;20221;-81
2024/01/26 13:30:12;;;;;;;12.60;7.03;;;;;;;;;;5028191;28;20196;-79
2024/01/26 13:32:47;;;;;;;11.30;5.90;;;;;;;;;;5047488;28;20260;-79
2024/01/26 13:35:16;;;;;;;10.90;5.13;;;;;;;;;;5055134;28;20276;-81
2024/01/26 13:37:43;;;;;;;10.60;5.60;;;;;;;;;;5041635;28;20196;-80
2024/01/26 13:40:10;;;;;;;10.40;5.37;;;;;;;;;;5044418;28;20292;-79
2024/01/26 13:42:37;;;;;;;12.23;5.70;;;;;;;;;;5050498;28;20678;-79
2024/01/26 13:45:08;;;;;;;13.97;6.00;;;;;;;;;;5050942;28;20209;-81
2024/01/26 13:47:37;;;;;;;10.37;5.23;;;;;;;;;;5046676;28;20217;-79
2024/01/26 13:50:05;;;;;;;9.93;5.13;;;;;;;;;;5050823;28;20205;-79
2024/01/26 13:52:32;;;;;;;12.80;5.83;;;;;;;;;;5044641;28;20237;-79
2024/01/26 13:55:01;;;;;;;9.73;5.93;;;;;;;;;;5055824;28;20250;-79
2024/01/26 13:57:29;;;;;;;12.83;5.70;;;;;;;;;;5048952;28;20342;-79
2024/01/26 13:59:57;;;;;;;12.80;6.20;;;;;;;;;;5053904;28;20206;-79
2024/01/26 14:02:45;;;;;;;18.13;9.50;;;;;;;;;;5049570;28;20185;-79
2024/01/26 14:05:14;;;;;;;18.03;8.30;;;;;;;;;;5050069;28;20205;-78
2024/01/26 14:07:44;;;;;;;12.57;7.63;;;;;;;;;;5049657;28;20229;-82
2024/01/26 14:10:12;;;;;;;9.90;6.33;;;;;;;;;;5049974;28;20269;-79
2024/01/26 14:12:38;;;;;;;11.67;6.70;;;;;;;;;;5031914;28;20263;-79
2024/01/26 14:15:09;;;;;;;10.27;5.50;;;;;;;;;;5052115;28;20194;-78
2024/01/26 14:17:37;;;;;;;10.30;5.10;;;;;;;;;;5052256;28;20190;-79
2024/01/26 14:20:07;;;;;;;11.17;5.07;;;;;;;;;;5054898;28;20210;-80
2024/01/26 14:22:34;;;;;;;9.67;4.40;;;;;;;;;;5052225;28;20201;-81
2024/01/26 14:25:01;;;;;;;9.00;4.47;;;;;;;;;;5049849;28;20201;-80
2024/01/26 14:27:33;;;;;;;9.40;4.40;;;;;;;;;;5050423;28;20298;-79
2024/01/26 14:30:03;;;;;;;9.97;4.57;;;;;;;;;;5035080;28;20185;-79
2024/01/26 14:32:35;;;;;;;10.63;5.50;;;;;;;;;;5034476;28;20631;-78
2024/01/26 14:35:03;;;;;;;7.97;4.57;;;;;;;;;;5050091;28;20280;-79
2024/01/26 14:37:31;;;;;;;8.70;4.40;;;;;;;;;;5032112;28;20198;-79
2024/01/26 14:40:12;;;;;;;9.53;4.83;;;;;;;;;;5053871;28;20189;-79
2024/01/26 14:42:41;;;;;;;9.93;5.00;;;;;;;;;;5046295;28;20731;-80
2024/01/26 14:45:11;;;;;;;9.23;4.70;;;;;;;;;;5039860;28;20288;-80
2024/01/26 14:47:43;;;;;;;11.93;5.37;;;;;;;;;;5050042;28;20209;-79